createdAt,value
2018-05-07T00:00:35.582Z,14.90
2018-05-07T00:05:40.891Z,14.80
2018-05-07T00:10:46.499Z,14.60
2018-05-07T00:15:52.454Z,14.70
2018-05-07T00:21:02.673Z,14.90
2018-05-07T00:26:08.620Z,14.80
2018-05-07T00:31:14.796Z,14.80
2018-05-07T00:36:20.795Z,14.80
2018-05-07T00:41:25.047Z,14.70
2018-05-07T00:46:31.505Z,14.70
2018-05-07T00:51:38.797Z,14.40
2018-05-07T00:56:42.622Z,14.30
2018-05-07T01:01:50.403Z,14.30
2018-05-07T01:06:55.839Z,14.10
2018-05-07T01:12:02.408Z,14.00
2018-05-07T01:17:06.880Z,13.90
2018-05-07T01:22:12.643Z,14.00
2018-05-07T01:27:18.004Z,13.90
2018-05-07T01:32:23.398Z,13.80
2018-05-07T01:37:29.296Z,13.90
2018-05-07T01:42:34.307Z,13.90
2018-05-07T01:47:40.352Z,13.90
2018-05-07T01:52:46.804Z,13.80
2018-05-07T01:57:52.570Z,13.70
2018-05-07T02:02:58.270Z,13.50
2018-05-07T02:08:03.379Z,13.30
2018-05-07T02:13:13.580Z,13.30
2018-05-07T02:18:19.031Z,13.20
2018-05-07T02:23:34.104Z,13.10
2018-05-07T02:28:39.241Z,13.00
2018-05-07T02:33:43.103Z,13.10
2018-05-07T02:38:48.445Z,13.20
2018-05-07T02:43:54.262Z,13.10
2018-05-07T02:49:02.818Z,13.10
2018-05-07T02:54:09.126Z,13.10
2018-05-07T02:59:16.491Z,12.80
2018-05-07T03:04:24.593Z,12.80
2018-05-07T03:09:30.526Z,12.70
2018-05-07T03:14:39.461Z,12.60
2018-05-07T03:19:56.850Z,12.70
2018-05-07T03:25:02.837Z,12.60
2018-05-07T03:30:11.957Z,12.60
2018-05-07T03:35:17.831Z,12.60
2018-05-07T03:40:25.275Z,12.40
2018-05-07T03:45:30.082Z,12.50
2018-05-07T03:50:35.599Z,12.60
2018-05-07T03:55:46.485Z,12.60
2018-05-07T04:00:51.306Z,12.70
2018-05-07T04:05:57.099Z,12.70
2018-05-07T04:11:12.188Z,12.80
2018-05-07T04:32:26.415Z,13.40
2018-05-07T04:37:32.863Z,13.60
2018-05-07T04:42:38.250Z,13.50
2018-05-07T04:47:41.665Z,14.00
2018-05-07T04:52:47.573Z,15.00
2018-05-07T04:57:53.083Z,16.60
2018-05-07T05:03:00.435Z,18.30
2018-05-07T05:08:05.468Z,19.50
2018-05-07T05:13:11.767Z,20.20
2018-05-07T05:18:22.186Z,20.50
2018-05-07T05:23:27.989Z,20.70
2018-05-07T05:28:35.139Z,21.20
2018-05-07T05:33:44.954Z,21.30
2018-05-07T05:38:51.596Z,21.00
2018-05-07T05:43:58.552Z,20.80
2018-05-07T05:49:03.512Z,20.70
2018-05-07T05:54:11.362Z,21.40
2018-05-07T05:59:17.443Z,20.90
2018-05-07T06:04:24.531Z,20.50
2018-05-07T06:09:31.029Z,20.40
2018-05-07T06:14:36.863Z,20.50
2018-05-07T06:19:44.644Z,20.90
2018-05-07T06:24:50.345Z,20.80
2018-05-07T06:29:56.570Z,21.50
2018-05-07T06:35:03.106Z,20.80
2018-05-07T06:40:10.697Z,20.10
2018-05-07T06:45:16.699Z,20.90
2018-05-07T06:50:22.959Z,21.00
2018-05-07T06:55:28.767Z,21.00
2018-05-07T07:00:35.659Z,21.20
2018-05-07T07:05:42.789Z,21.10
2018-05-07T07:10:51.342Z,20.90
2018-05-07T07:15:56.726Z,20.90
2018-05-07T07:21:04.824Z,21.70
2018-05-07T07:26:12.365Z,22.20
2018-05-07T07:31:19.498Z,22.40
2018-05-07T07:36:25.577Z,23.10
2018-05-07T07:41:31.857Z,22.80
2018-05-07T07:46:38.793Z,22.80
2018-05-07T07:51:46.736Z,23.00
2018-05-07T07:56:52.316Z,22.80
2018-05-07T08:01:59.788Z,23.20
2018-05-07T08:07:05.115Z,23.10
2018-05-07T08:12:11.565Z,23.00
2018-05-07T08:17:18.531Z,23.00
2018-05-07T08:22:24.524Z,23.30
2018-05-07T08:27:29.967Z,23.30
2018-05-07T08:32:34.897Z,23.00
2018-05-07T08:37:39.768Z,23.40
2018-05-07T08:42:41.426Z,24.20
2018-05-07T08:47:45.787Z,24.30
2018-05-07T08:52:49.696Z,23.60
2018-05-07T08:57:53.998Z,23.80
2018-05-07T09:02:56.682Z,23.40
2018-05-07T09:08:00.598Z,23.40
2018-05-07T09:13:03.906Z,24.00
2018-05-07T09:18:07.848Z,24.00
2018-05-07T09:23:12.752Z,23.60
2018-05-07T09:28:16.222Z,24.20
2018-05-07T09:33:19.289Z,24.70
2018-05-07T09:38:22.590Z,25.80
2018-05-07T09:43:25.482Z,25.00
2018-05-07T09:48:28.188Z,24.10
2018-05-07T09:53:34.650Z,23.60
2018-05-07T09:58:56.672Z,23.50
2018-05-07T10:04:01.333Z,23.40
2018-05-07T10:09:05.040Z,23.60
2018-05-07T10:14:09.184Z,23.30
2018-05-07T10:19:13.878Z,23.20
2018-05-07T10:24:18.877Z,23.10
2018-05-07T10:29:21.910Z,22.90
2018-05-07T10:34:25.371Z,23.00
2018-05-07T10:39:28.852Z,23.70
2018-05-07T10:44:32.050Z,23.50
2018-05-07T10:49:36.789Z,23.30
2018-05-07T10:54:42.136Z,23.70
2018-05-07T10:59:45.231Z,23.60
2018-05-07T11:04:49.745Z,23.80
2018-05-07T11:09:52.399Z,23.60
2018-05-07T11:14:56.724Z,23.60
2018-05-07T11:19:59.498Z,23.90
2018-05-07T11:25:03.469Z,24.00
2018-05-07T11:30:06.961Z,24.00
2018-05-07T11:35:11.818Z,23.90
2018-05-07T11:40:13.656Z,23.90
2018-05-07T11:45:16.861Z,23.80
2018-05-07T11:50:19.858Z,24.00
2018-05-07T11:55:23.288Z,23.90
2018-05-07T12:00:25.982Z,23.90
2018-05-07T12:05:30.387Z,23.70
2018-05-07T12:10:35.111Z,24.00
2018-05-07T12:15:41.836Z,24.00
2018-05-07T12:20:46.353Z,24.10
2018-05-07T12:25:54.331Z,24.40
2018-05-07T12:31:01.296Z,24.40
2018-05-07T12:36:06.491Z,24.50
2018-05-07T12:41:12.941Z,24.70
2018-05-07T12:46:19.729Z,24.40
2018-05-07T12:51:27.917Z,24.50
2018-05-07T12:56:35.598Z,24.50
2018-05-07T13:01:41.460Z,24.40
2018-05-07T13:06:51.814Z,24.60
2018-05-07T13:11:59.307Z,24.50
2018-05-07T13:17:04.239Z,24.60
2018-05-07T13:22:10.936Z,24.50
2018-05-07T13:27:22.809Z,24.50
2018-05-07T13:32:33.527Z,24.80
2018-05-07T13:37:41.551Z,24.70
2018-05-07T13:42:47.746Z,24.80
2018-05-07T13:47:54.736Z,24.70
2018-05-07T13:53:01.377Z,24.90
2018-05-07T13:58:07.698Z,25.10
2018-05-07T14:03:13.084Z,25.10
2018-05-07T14:08:22.584Z,25.10
2018-05-07T14:13:27.160Z,25.20
2018-05-07T14:18:32.343Z,25.20
2018-05-07T14:23:38.788Z,25.30
2018-05-07T14:28:45.187Z,25.50
2018-05-07T14:33:55.551Z,25.40
2018-05-07T14:39:06.754Z,25.40
2018-05-07T14:44:13.126Z,25.20
2018-05-07T14:49:19.743Z,25.40
2018-05-07T14:54:27.464Z,25.40
2018-05-07T14:59:29.118Z,25.40
2018-05-07T15:04:35.867Z,25.40
2018-05-07T15:09:42.827Z,25.50
2018-05-07T15:14:49.182Z,25.50
2018-05-07T15:19:56.347Z,25.60
2018-05-07T15:30:21.779Z,25.70
2018-05-07T15:35:32.848Z,25.70
2018-05-07T15:40:42.429Z,25.60
2018-05-07T15:45:52.370Z,25.70
2018-05-07T15:50:58.497Z,25.70
2018-05-07T15:56:05.955Z,25.70
2018-05-07T16:01:11.586Z,25.70
2018-05-07T16:06:19.159Z,25.60
2018-05-07T16:11:26.524Z,25.60
2018-05-07T16:16:32.727Z,25.50
2018-05-07T16:21:39.604Z,25.60
2018-05-07T16:26:47.248Z,25.60
2018-05-07T16:31:55.346Z,25.60
2018-05-07T16:37:02.221Z,25.70
2018-05-07T16:42:08.898Z,25.50
2018-05-07T16:47:10.676Z,25.40
2018-05-07T16:52:19.418Z,25.50
2018-05-07T16:57:28.119Z,25.50
2018-05-07T17:02:35.977Z,25.30
2018-05-07T17:07:43.316Z,25.30
2018-05-07T17:12:49.821Z,25.10
2018-05-07T17:17:56.893Z,25.10
2018-05-07T17:23:02.492Z,25.10
2018-05-07T17:28:08.277Z,25.00
2018-05-07T17:33:14.612Z,25.00
2018-05-07T17:38:20.807Z,24.90
2018-05-07T17:43:26.373Z,24.90
2018-05-07T17:48:48.211Z,24.80
2018-05-07T17:53:55.653Z,24.70
2018-05-07T17:59:02.110Z,24.60
2018-05-07T18:04:12.123Z,24.30
2018-05-07T18:09:13.928Z,24.30
2018-05-07T18:14:20.124Z,24.30
2018-05-07T18:19:26.088Z,24.10
2018-05-07T18:24:33.197Z,23.90
2018-05-07T18:29:45.424Z,23.80
2018-05-07T18:34:52.873Z,23.60
2018-05-07T18:39:59.833Z,23.50
2018-05-07T18:45:10.808Z,23.20
2018-05-07T18:50:19.997Z,22.70
2018-05-07T18:55:28.895Z,22.40
2018-05-07T19:00:39.199Z,21.80
2018-05-07T19:05:47.773Z,21.70
2018-05-07T19:10:54.620Z,21.10
2018-05-07T19:16:04.696Z,20.50
2018-05-07T19:21:11.541Z,20.40
2018-05-07T19:26:16.596Z,19.90
2018-05-07T19:31:23.728Z,19.10
2018-05-07T19:36:31.655Z,19.30
2018-05-07T19:41:40.263Z,19.70
2018-05-07T19:46:44.759Z,19.70
2018-05-07T19:51:50.722Z,19.80
2018-05-07T19:57:00.878Z,19.70
2018-05-07T20:02:08.236Z,19.50
2018-05-07T20:07:14.623Z,19.50
2018-05-07T20:12:22.681Z,19.30
2018-05-07T20:17:28.152Z,19.40
2018-05-07T20:22:36.554Z,19.10
2018-05-07T20:27:45.923Z,19.00
2018-05-07T20:32:47.951Z,18.80
2018-05-07T20:37:53.381Z,18.50
2018-05-07T20:43:00.663Z,18.30
2018-05-07T20:48:07.479Z,18.30
2018-05-07T20:53:13.240Z,18.30
2018-05-07T20:58:20.444Z,18.10
2018-05-07T21:03:25.776Z,18.00
2018-05-07T21:08:32.692Z,17.80
2018-05-07T21:13:43.484Z,17.80
2018-05-07T21:18:48.640Z,17.70
2018-05-07T21:23:58.255Z,17.70
2018-05-07T21:29:01.637Z,17.50
2018-05-07T21:34:06.329Z,17.50
2018-05-07T21:39:10.267Z,17.50
2018-05-07T21:44:14.143Z,17.50
2018-05-07T21:49:18.303Z,17.20
2018-05-07T21:54:22.513Z,17.20
2018-05-07T21:59:26.536Z,17.00
2018-05-07T22:04:30.723Z,16.80
2018-05-07T22:09:34.610Z,16.70
2018-05-07T22:14:39.303Z,17.10
2018-05-07T22:19:42.388Z,17.10
2018-05-07T22:24:46.328Z,17.00
2018-05-07T22:29:50.327Z,16.90
2018-05-07T22:34:54.223Z,16.90
2018-05-07T22:39:58.065Z,16.70
2018-05-07T22:45:02.527Z,16.70
2018-05-07T22:50:07.380Z,16.50
2018-05-07T22:55:20.444Z,16.30
2018-05-07T23:00:23.951Z,16.30
2018-05-07T23:05:27.136Z,16.30
2018-05-07T23:10:30.903Z,16.20
2018-05-07T23:15:36.442Z,16.10
2018-05-07T23:20:43.067Z,16.10
2018-05-07T23:25:44.631Z,16.20
2018-05-07T23:30:46.205Z,16.30
2018-05-07T23:35:47.789Z,16.10
2018-05-07T23:40:49.336Z,16.20
2018-05-07T23:45:53.815Z,16.40
2018-05-07T23:50:58.311Z,16.40
2018-05-07T23:56:03.390Z,16.50
